Time;durP1;ratioP1;P1;durP2;ratioP2;P2;SDS_P1;SDS_P2;PMS_P1;PMS_P2;Temp;Humidity;BMP_temperature;BMP_pressure;BME280_temperature;BME280_humidity;BME280_pressure;Samples;Min_cycle;Max_cycle;Signal;HPM_P1;HPM_P2
2021/03/25 00:01:43;;;;;;;23.85;14.27;;;;;;;;;;5096732;28;20202;-48
2021/03/25 00:04:10;;;;;;;23.88;13.38;;;;;;;;;;5096619;28;20225;-54
2021/03/25 00:06:39;;;;;;;27.52;14.50;;;;;;;;;;5096710;28;20205;-50
2021/03/25 00:09:09;;;;;;;24.60;14.48;;;;;;;;;;5102606;28;20209;-56
2021/03/25 00:11:38;;;;;;;24.67;15.20;;;;;;;;;;5116896;28;20258;-55
2021/03/25 00:14:05;;;;;;;24.63;13.68;;;;;;;;;;5116064;28;20205;-52
2021/03/25 00:16:32;;;;;;;26.35;15.27;;;;;;;;;;5116373;28;20233;-51
2021/03/25 00:19:00;;;;;;;30.95;17.13;;;;;;;;;;5116652;28;20212;-52
2021/03/25 00:21:27;;;;;;;27.83;14.40;;;;;;;;;;5116785;28;20559;-54
2021/03/25 00:23:54;;;;;;;22.88;12.77;;;;;;;;;;5116902;28;20201;-56
2021/03/25 00:26:21;;;;;;;22.05;13.02;;;;;;;;;;5116627;28;20234;-49
2021/03/25 00:28:48;;;;;;;23.67;14.75;;;;;;;;;;5116207;28;20201;-50
2021/03/25 00:31:43;;;;;;;24.35;13.40;;;;;;;;;;5113430;28;20240;-52
2021/03/25 00:49:13;;;;;;;28.42;15.85;;;;;;;;;;5131607;27;20282;-51
2021/03/25 00:51:41;;;;;;;50.45;32.15;;;;;;;;;;5135350;28;20208;-49
2021/03/25 00:54:25;;;;;;;29.13;16.35;;;;;;;;;;5136605;28;20225;-54
2021/03/25 00:56:52;;;;;;;26.35;15.43;;;;;;;;;;5136211;28;20214;-58
2021/03/25 00:59:19;;;;;;;24.90;14.95;;;;;;;;;;5136358;28;20209;-54
2021/03/25 01:01:59;;;;;;;22.63;13.48;;;;;;;;;;5136326;28;20232;-53
2021/03/25 01:04:26;;;;;;;27.30;14.18;;;;;;;;;;5136932;28;20208;-52
2021/03/25 01:06:54;;;;;;;23.17;12.80;;;;;;;;;;5135658;28;20219;-47
2021/03/25 01:09:23;;;;;;;26.27;14.07;;;;;;;;;;5122795;28;20219;-48
2021/03/25 01:11:51;;;;;;;27.42;14.02;;;;;;;;;;5136164;28;20207;-50
2021/03/25 01:14:20;;;;;;;25.45;14.02;;;;;;;;;;5136396;28;20216;-55
2021/03/25 01:16:54;;;;;;;26.27;12.65;;;;;;;;;;5136547;28;20205;-56
2021/03/25 01:19:23;;;;;;;40.78;14.95;;;;;;;;;;5125366;28;20235;-53
2021/03/25 01:21:50;;;;;;;23.23;13.00;;;;;;;;;;5115985;28;20197;-52
2021/03/25 01:24:51;;;;;;;27.73;14.77;;;;;;;;;;5116859;28;20322;-52
2021/03/25 01:27:18;;;;;;;27.25;14.43;;;;;;;;;;5137007;28;20193;-51
2021/03/25 01:29:51;;;;;;;25.45;13.27;;;;;;;;;;5136432;28;20365;-55
2021/03/25 01:35:23;;;;;;;24.42;15.18;;;;;;;;;;5134747;28;20215;-54
2021/03/25 01:37:50;;;;;;;30.45;15.50;;;;;;;;;;5135681;28;20236;-51
2021/03/25 01:40:20;;;;;;;24.88;14.00;;;;;;;;;;5136977;28;20193;-54
2021/03/25 01:42:47;;;;;;;23.33;13.80;;;;;;;;;;5140255;28;20205;-50
2021/03/25 01:45:35;;;;;;;37.10;16.05;;;;;;;;;;5140048;28;20185;-54
2021/03/25 01:48:11;;;;;;;25.23;15.23;;;;;;;;;;5133515;28;20310;-54
2021/03/25 01:50:38;;;;;;;24.55;14.10;;;;;;;;;;5119215;28;20233;-51
2021/03/25 01:53:17;;;;;;;24.10;14.07;;;;;;;;;;5119383;28;20197;-50
2021/03/25 01:55:47;;;;;;;26.25;14.35;;;;;;;;;;5126322;27;20212;-55
2021/03/25 01:58:29;;;;;;;26.10;14.75;;;;;;;;;;5139737;28;20358;-53
2021/03/25 02:01:20;;;;;;;35.55;15.55;;;;;;;;;;5139988;27;20216;-54
2021/03/25 02:04:05;;;;;;;28.15;12.93;;;;;;;;;;5139716;28;20192;-51
2021/03/25 02:06:43;;;;;;;26.30;13.98;;;;;;;;;;5140057;28;20184;-53
2021/03/25 02:09:15;;;;;;;27.73;14.18;;;;;;;;;;5139411;28;20209;-51
2021/03/25 02:11:44;;;;;;;27.90;14.32;;;;;;;;;;5139718;27;20204;-51
2021/03/25 02:14:16;;;;;;;29.33;13.75;;;;;;;;;;5138993;28;20232;-48
2021/03/25 02:16:47;;;;;;;20.73;12.93;;;;;;;;;;5139854;27;20204;-51
2021/03/25 02:19:20;;;;;;;26.65;14.25;;;;;;;;;;5139849;27;20209;-53
2021/03/25 02:22:10;;;;;;;28.52;14.93;;;;;;;;;;5140133;28;20202;-50
2021/03/25 02:24:44;;;;;;;30.15;14.77;;;;;;;;;;5140025;28;20192;-54
2021/03/25 02:27:22;;;;;;;32.30;14.23;;;;;;;;;;5139663;28;20203;-53
2021/03/25 02:29:54;;;;;;;28.27;15.43;;;;;;;;;;5139185;28;20211;-49
2021/03/25 02:35:28;;;;;;;22.33;14.00;;;;;;;;;;5139792;28;20230;-46
2021/03/25 02:37:59;;;;;;;27.23;15.27;;;;;;;;;;5139033;28;20256;-56
2021/03/25 02:40:29;;;;;;;26.08;13.77;;;;;;;;;;5139559;28;20213;-52
2021/03/25 02:42:58;;;;;;;28.10;14.60;;;;;;;;;;5139064;28;20226;-50
2021/03/25 02:45:26;;;;;;;26.02;14.57;;;;;;;;;;5139340;28;20193;-50
2021/03/25 02:48:06;;;;;;;22.65;13.93;;;;;;;;;;5139211;28;20192;-53
2021/03/25 02:50:38;;;;;;;25.65;14.88;;;;;;;;;;5138892;28;20224;-56
2021/03/25 02:53:10;;;;;;;31.13;16.83;;;;;;;;;;5138665;28;20393;-48
2021/03/25 02:55:40;;;;;;;27.60;15.88;;;;;;;;;;5138800;28;20229;-53
2021/03/25 02:58:11;;;;;;;26.00;14.70;;;;;;;;;;5138961;28;20215;-51
2021/03/25 03:00:39;;;;;;;26.40;14.90;;;;;;;;;;5138789;28;20219;-50
2021/03/25 03:03:13;;;;;;;29.15;14.70;;;;;;;;;;5138364;28;20192;-56
2021/03/25 03:05:42;;;;;;;27.73;15.30;;;;;;;;;;5138729;28;20209;-51
2021/03/25 03:08:12;;;;;;;28.35;16.08;;;;;;;;;;5138286;28;20222;-53
2021/03/25 03:10:52;;;;;;;29.48;15.43;;;;;;;;;;5138499;28;20197;-56
2021/03/25 03:13:20;;;;;;;32.55;14.02;;;;;;;;;;5138295;28;20214;-52
2021/03/25 03:15:49;;;;;;;24.23;14.55;;;;;;;;;;5138700;28;20228;-51
2021/03/25 03:18:20;;;;;;;31.30;15.68;;;;;;;;;;5138571;28;20212;-53
2021/03/25 03:20:52;;;;;;;28.73;14.70;;;;;;;;;;5138582;28;20517;-52
2021/03/25 03:23:19;;;;;;;27.30;16.10;;;;;;;;;;5138906;28;20219;-53
2021/03/25 03:25:59;;;;;;;30.92;14.95;;;;;;;;;;5138977;28;20196;-49
2021/03/25 03:28:27;;;;;;;24.15;15.25;;;;;;;;;;5136640;28;20257;-56
2021/03/25 03:30:59;;;;;;;28.08;15.30;;;;;;;;;;5138193;28;20254;-49
2021/03/25 03:33:27;;;;;;;28.13;14.70;;;;;;;;;;5138204;28;20196;-52
2021/03/25 03:35:57;;;;;;;29.95;15.80;;;;;;;;;;5138296;28;20213;-49
2021/03/25 03:38:37;;;;;;;26.48;15.55;;;;;;;;;;5138230;28;20231;-51
2021/03/25 03:41:05;;;;;;;33.53;15.50;;;;;;;;;;5137919;28;20212;-52
2021/03/25 03:43:33;;;;;;;29.08;14.45;;;;;;;;;;5137728;28;20213;-52
2021/03/25 03:46:07;;;;;;;28.08;15.15;;;;;;;;;;5137540;28;20235;-53
2021/03/25 03:48:37;;;;;;;27.17;16.15;;;;;;;;;;5137432;28;20196;-48
2021/03/25 03:51:08;;;;;;;31.90;15.98;;;;;;;;;;5137626;28;20208;-50
2021/03/25 03:53:37;;;;;;;28.90;16.85;;;;;;;;;;5137599;28;20209;-52
2021/03/25 03:56:08;;;;;;;26.38;15.38;;;;;;;;;;5137256;28;20247;-51
2021/03/25 03:58:40;;;;;;;27.38;15.63;;;;;;;;;;5137213;28;20192;-48
2021/03/25 04:01:09;;;;;;;22.98;13.30;;;;;;;;;;5137616;28;20242;-51
2021/03/25 04:03:38;;;;;;;30.13;14.73;;;;;;;;;;5136490;28;20200;-51
2021/03/25 04:06:07;;;;;;;27.20;15.15;;;;;;;;;;5137221;28;20366;-53
2021/03/25 04:08:37;;;;;;;27.77;14.02;;;;;;;;;;5125242;28;20213;-53
2021/03/25 04:11:06;;;;;;;23.50;12.68;;;;;;;;;;5116686;28;20205;-49
2021/03/25 04:13:42;;;;;;;24.48;12.85;;;;;;;;;;5100006;28;20193;-58
2021/03/25 04:16:09;;;;;;;27.67;13.20;;;;;;;;;;5117624;28;20231;-50
2021/03/25 04:18:43;;;;;;;30.15;15.25;;;;;;;;;;5118900;28;20204;-54
2021/03/25 04:24:17;;;;;;;27.38;15.13;;;;;;;;;;5125349;28;20187;-52
2021/03/25 04:26:49;;;;;;;31.98;15.85;;;;;;;;;;5136837;28;20192;-52
2021/03/25 04:32:20;;;;;;;29.00;16.23;;;;;;;;;;5109549;28;702956;-48
2021/03/25 04:34:48;;;;;;;26.67;16.70;;;;;;;;;;5136542;28;20260;-49
2021/03/25 04:40:21;;;;;;;32.95;16.00;;;;;;;;;;5136704;28;20170;-55
2021/03/25 04:42:51;;;;;;;31.27;17.05;;;;;;;;;;5136778;28;20209;-51
2021/03/25 04:45:24;;;;;;;28.23;17.27;;;;;;;;;;5136867;28;20201;-49
2021/03/25 04:47:52;;;;;;;30.80;15.80;;;;;;;;;;5136691;28;20196;-54
2021/03/25 04:50:22;;;;;;;28.50;15.45;;;;;;;;;;5122566;28;20192;-48
2021/03/25 04:52:49;;;;;;;30.80;15.35;;;;;;;;;;5137064;28;20227;-53
2021/03/25 04:55:18;;;;;;;32.42;14.95;;;;;;;;;;5136493;28;20235;-51
2021/03/25 04:58:04;;;;;;;29.60;15.50;;;;;;;;;;5136669;28;20205;-45
2021/03/25 05:00:32;;;;;;;32.50;15.20;;;;;;;;;;5136489;28;20241;-55
2021/03/25 05:03:01;;;;;;;32.33;16.75;;;;;;;;;;5135961;28;20212;-46
2021/03/25 05:05:29;;;;;;;27.60;14.82;;;;;;;;;;5136332;28;20209;-50
2021/03/25 05:08:01;;;;;;;22.35;13.93;;;;;;;;;;5136092;28;20193;-51
2021/03/25 05:10:36;;;;;;;27.75;15.90;;;;;;;;;;5136167;28;20263;-52
2021/03/25 05:13:04;;;;;;;26.88;14.70;;;;;;;;;;5136478;28;20208;-55
2021/03/25 05:15:32;;;;;;;35.35;15.65;;;;;;;;;;5137649;28;20237;-48
2021/03/25 05:18:06;;;;;;;24.25;14.63;;;;;;;;;;5140745;28;20210;-45
2021/03/25 05:20:35;;;;;;;32.17;16.13;;;;;;;;;;5140725;28;20188;-51
2021/03/25 05:23:17;;;;;;;26.77;17.20;;;;;;;;;;5140800;28;20196;-53
2021/03/25 05:25:47;;;;;;;28.88;15.85;;;;;;;;;;5131264;27;20187;-55
2021/03/25 05:28:18;;;;;;;24.50;14.63;;;;;;;;;;5141999;27;20189;-55
2021/03/25 05:31:07;;;;;;;32.65;15.30;;;;;;;;;;5152353;27;20208;-50
2021/03/25 05:33:34;;;;;;;35.53;14.45;;;;;;;;;;5140191;28;20254;-53
2021/03/25 05:36:02;;;;;;;33.22;14.35;;;;;;;;;;5140143;28;20227;-50
2021/03/25 05:38:38;;;;;;;32.33;15.68;;;;;;;;;;5139940;28;20204;-52
2021/03/25 05:41:09;;;;;;;20.73;12.50;;;;;;;;;;5139627;28;20204;-53
2021/03/25 05:43:55;;;;;;;26.42;14.23;;;;;;;;;;5139199;28;20193;-52
2021/03/25 05:46:26;;;;;;;28.27;14.38;;;;;;;;;;5139752;28;20268;-55
2021/03/25 05:48:59;;;;;;;23.67;14.13;;;;;;;;;;5139184;28;20223;-53
2021/03/25 05:51:33;;;;;;;29.13;15.27;;;;;;;;;;5139271;28;20211;-53
2021/03/25 05:54:05;;;;;;;25.50;15.52;;;;;;;;;;5128414;28;20201;-55
2021/03/25 05:56:38;;;;;;;28.80;15.82;;;;;;;;;;5139600;28;20518;-55
2021/03/25 05:59:11;;;;;;;33.22;17.38;;;;;;;;;;5137239;28;20364;-51
2021/03/25 06:02:00;;;;;;;35.40;16.83;;;;;;;;;;5139296;28;20333;-57
2021/03/25 06:04:47;;;;;;;32.70;15.70;;;;;;;;;;5136979;28;20228;-56
2021/03/25 06:07:42;;;;;;;36.03;15.48;;;;;;;;;;5138403;28;20213;-55
2021/03/25 06:10:16;;;;;;;32.78;14.65;;;;;;;;;;5137412;27;20415;-56
2021/03/25 06:12:50;;;;;;;26.35;13.75;;;;;;;;;;5114445;28;20207;-52
2021/03/25 06:15:36;;;;;;;28.60;14.88;;;;;;;;;;5133269;28;20260;-50
2021/03/25 06:18:19;;;;;;;33.30;15.85;;;;;;;;;;5129934;27;20189;-52
2021/03/25 06:20:56;;;;;;;29.98;14.40;;;;;;;;;;5137661;28;20209;-55
2021/03/25 06:23:30;;;;;;;27.75;14.75;;;;;;;;;;5138599;28;20207;-54
2021/03/25 06:29:19;;;;;;;27.58;16.00;;;;;;;;;;5124160;28;20200;-53
2021/03/25 06:32:11;;;;;;;26.73;13.90;;;;;;;;;;5138296;28;20261;-51
2021/03/25 06:34:47;;;;;;;23.40;13.23;;;;;;;;;;5140873;27;20603;-53
2021/03/25 06:37:15;;;;;;;25.92;14.60;;;;;;;;;;5138052;28;20282;-50
2021/03/25 06:39:56;;;;;;;28.42;16.38;;;;;;;;;;5138234;28;20193;-53
2021/03/25 06:42:27;;;;;;;32.38;17.13;;;;;;;;;;5135776;28;20223;-50
2021/03/25 06:44:57;;;;;;;38.58;21.67;;;;;;;;;;5131971;28;20275;-55
2021/03/25 06:47:48;;;;;;;54.67;26.98;;;;;;;;;;5131557;27;20212;-51
2021/03/25 06:50:18;;;;;;;48.87;28.40;;;;;;;;;;5116543;28;20233;-53
2021/03/25 06:52:54;;;;;;;61.13;33.88;;;;;;;;;;5134119;27;20455;-53
2021/03/25 06:55:30;;;;;;;57.17;34.92;;;;;;;;;;5147755;27;20220;-51
2021/03/25 06:57:59;;;;;;;56.78;33.97;;;;;;;;;;5135467;28;20240;-51
2021/03/25 07:00:30;;;;;;;65.45;36.38;;;;;;;;;;5137701;27;20209;-57
2021/03/25 07:03:04;;;;;;;66.35;34.70;;;;;;;;;;5142950;27;20258;-52
2021/03/25 07:05:34;;;;;;;54.78;32.95;;;;;;;;;;5138032;28;20274;-52
2021/03/25 07:08:09;;;;;;;73.93;36.30;;;;;;;;;;5137873;28;20224;-53
2021/03/25 07:10:36;;;;;;;63.00;36.70;;;;;;;;;;5137174;28;20251;-56
2021/03/25 07:13:07;;;;;;;59.83;36.20;;;;;;;;;;5136699;28;20218;-53
2021/03/25 07:15:43;;;;;;;70.88;36.05;;;;;;;;;;5137329;28;20481;-52
2021/03/25 07:18:21;;;;;;;65.33;36.27;;;;;;;;;;5136661;28;20188;-51
2021/03/25 07:20:49;;;;;;;59.10;34.00;;;;;;;;;;5136627;28;20438;-51
2021/03/25 07:23:18;;;;;;;58.03;35.53;;;;;;;;;;5137034;28;20473;-55
2021/03/25 07:25:46;;;;;;;67.28;36.00;;;;;;;;;;5134701;28;20210;-58
2021/03/25 07:28:17;;;;;;;68.22;37.92;;;;;;;;;;5133349;28;20205;-56
2021/03/25 07:30:56;;;;;;;61.17;37.80;;;;;;;;;;5136673;28;20193;-55
2021/03/25 07:33:35;;;;;;;69.03;37.50;;;;;;;;;;5136545;28;20450;-52
2021/03/25 07:36:15;;;;;;;58.30;34.27;;;;;;;;;;5136987;28;20508;-55
2021/03/25 07:38:43;;;;;;;61.73;34.83;;;;;;;;;;5135729;28;20450;-50
2021/03/25 07:41:25;;;;;;;64.50;36.17;;;;;;;;;;5137106;28;20458;-54
2021/03/25 07:43:58;;;;;;;64.63;36.53;;;;;;;;;;5136212;28;20192;-54
2021/03/25 07:46:27;;;;;;;65.83;36.30;;;;;;;;;;5136238;28;20462;-54
2021/03/25 07:49:02;;;;;;;64.90;35.90;;;;;;;;;;5136067;28;20427;-55
2021/03/25 07:51:41;;;;;;;61.20;38.00;;;;;;;;;;5132186;28;20438;-55
2021/03/25 07:54:25;;;;;;;63.10;39.23;;;;;;;;;;5125502;28;20439;-55
2021/03/25 07:57:09;;;;;;;60.03;37.63;;;;;;;;;;5133782;28;20443;-57
2021/03/25 07:59:47;;;;;;;62.00;37.80;;;;;;;;;;5129816;28;20773;-51
2021/03/25 08:02:26;;;;;;;61.40;37.03;;;;;;;;;;5135345;28;20463;-49
2021/03/25 08:04:52;;;;;;;55.90;33.57;;;;;;;;;;5135963;28;20491;-52
2021/03/25 08:07:37;;;;;;;56.73;36.00;;;;;;;;;;5136228;28;20547;-52
2021/03/25 08:10:05;;;;;;;71.13;39.80;;;;;;;;;;5115608;27;20454;-57
2021/03/25 08:12:33;;;;;;;65.77;38.20;;;;;;;;;;5155173;27;20422;-54
2021/03/25 08:15:08;;;;;;;70.87;38.40;;;;;;;;;;5156088;27;20488;-52
2021/03/25 08:17:37;;;;;;;64.70;39.17;;;;;;;;;;5128520;27;20485;-53
2021/03/25 08:20:06;;;;;;;65.73;39.17;;;;;;;;;;5130696;28;20492;-54
2021/03/25 08:22:55;;;;;;;67.27;37.97;;;;;;;;;;5126499;28;20451;-50
2021/03/25 08:25:25;;;;;;;71.67;38.30;;;;;;;;;;5115224;28;20451;-47
2021/03/25 08:27:58;;;;;;;69.60;38.10;;;;;;;;;;5115209;28;20530;-53
2021/03/25 08:30:51;;;;;;;64.60;38.37;;;;;;;;;;5115343;28;20451;-52
2021/03/25 08:33:30;;;;;;;72.37;39.87;;;;;;;;;;5153575;27;20438;-55
2021/03/25 08:36:03;;;;;;;65.47;37.97;;;;;;;;;;5155351;27;20496;-56
2021/03/25 08:38:39;;;;;;;67.13;39.97;;;;;;;;;;5126322;28;20469;-55
2021/03/25 08:41:14;;;;;;;55.50;37.27;;;;;;;;;;5135534;28;20434;-50
2021/03/25 08:44:15;;;;;;;58.17;36.60;;;;;;;;;;5134839;28;20450;-50
2021/03/25 08:46:47;;;;;;;61.53;36.13;;;;;;;;;;5127644;28;20477;-55
2021/03/25 08:49:23;;;;;;;63.83;36.97;;;;;;;;;;5151201;27;20457;-53
2021/03/25 08:52:06;;;;;;;68.43;39.87;;;;;;;;;;5134818;28;20454;-48
2021/03/25 08:54:38;;;;;;;59.57;36.97;;;;;;;;;;5134812;28;20458;-56
2021/03/25 09:00:12;;;;;;;69.53;39.87;;;;;;;;;;5133427;28;20490;-52
2021/03/25 09:02:40;;;;;;;53.20;35.67;;;;;;;;;;5133859;28;20458;-50
2021/03/25 09:05:09;;;;;;;61.43;37.13;;;;;;;;;;5134812;28;20485;-51
2021/03/25 09:07:38;;;;;;;56.23;33.67;;;;;;;;;;5133863;28;20505;-54
2021/03/25 09:10:11;;;;;;;65.20;39.83;;;;;;;;;;5135405;28;20470;-54
2021/03/25 09:12:39;;;;;;;64.93;37.37;;;;;;;;;;5135116;28;20494;-54
2021/03/25 09:15:07;;;;;;;61.40;38.87;;;;;;;;;;5134747;28;20482;-52
2021/03/25 09:17:38;;;;;;;59.87;39.27;;;;;;;;;;5135314;28;20455;-52
2021/03/25 09:20:09;;;;;;;60.40;36.77;;;;;;;;;;5135336;28;20680;-54
2021/03/25 09:22:42;;;;;;;57.63;36.83;;;;;;;;;;5135240;28;20493;-55
2021/03/25 09:25:38;;;;;;;58.70;37.17;;;;;;;;;;5134664;28;20450;-58
2021/03/25 09:28:18;;;;;;;52.10;36.80;;;;;;;;;;5135281;28;20493;-58
2021/03/25 09:31:04;;;;;;;59.83;36.13;;;;;;;;;;5134556;28;20438;-55
2021/03/25 09:33:42;;;;;;;62.23;40.40;;;;;;;;;;5134420;28;20440;-54
2021/03/25 09:36:40;;;;;;;61.23;36.37;;;;;;;;;;5133713;28;20566;-53
2021/03/25 09:39:21;;;;;;;53.87;38.27;;;;;;;;;;5134380;28;20461;-52
2021/03/25 09:41:48;;;;;;;63.50;36.47;;;;;;;;;;5134091;28;20445;-51
2021/03/25 09:44:28;;;;;;;65.23;37.57;;;;;;;;;;5133952;28;20453;-52
2021/03/25 09:47:22;;;;;;;74.17;40.90;;;;;;;;;;5135200;28;20565;-49
2021/03/25 09:49:55;;;;;;;55.30;37.30;;;;;;;;;;5135049;28;20456;-56
2021/03/25 09:55:30;;;;;;;49.13;33.03;;;;;;;;;;5113987;28;20494;-58
2021/03/25 09:58:04;;;;;;;62.50;37.60;;;;;;;;;;5133528;28;20430;-53
2021/03/25 10:01:02;;;;;;;67.73;40.63;;;;;;;;;;5135578;28;20439;-54
2021/03/25 10:04:05;;;;;;;57.80;35.00;;;;;;;;;;5137209;28;20482;-48
2021/03/25 10:06:55;;;;;;;59.83;35.83;;;;;;;;;;5138878;28;20483;-57
2021/03/25 10:09:43;;;;;;;62.97;35.67;;;;;;;;;;5136333;28;20529;-49
2021/03/25 10:12:12;;;;;;;54.90;36.40;;;;;;;;;;5137946;28;20462;-56
2021/03/25 10:15:07;;;;;;;63.47;38.63;;;;;;;;;;5137919;28;20440;-47
2021/03/25 10:17:55;;;;;;;51.30;36.33;;;;;;;;;;5136281;28;20458;-54
2021/03/25 10:23:29;;;;;;;57.57;35.90;;;;;;;;;;5137271;28;20487;-55
2021/03/25 10:26:09;;;;;;;54.83;36.50;;;;;;;;;;5135227;28;20482;-56
2021/03/25 10:28:41;;;;;;;59.43;33.60;;;;;;;;;;5120821;28;20491;-49
2021/03/25 10:31:25;;;;;;;71.53;38.70;;;;;;;;;;5138069;28;20488;-57
2021/03/25 10:34:15;;;;;;;57.27;37.87;;;;;;;;;;5136819;27;20442;-57
2021/03/25 10:36:46;;;;;;;49.87;35.37;;;;;;;;;;5131208;28;20494;-58
2021/03/25 10:39:23;;;;;;;47.67;31.83;;;;;;;;;;5139254;28;20465;-58
2021/03/25 10:41:50;;;;;;;49.30;35.20;;;;;;;;;;5136928;28;20462;-57
2021/03/25 10:44:21;;;;;;;51.47;33.83;;;;;;;;;;5137089;28;20442;-55
2021/03/25 10:49:56;;;;;;;62.17;37.93;;;;;;;;;;5137688;28;20414;-57
2021/03/25 10:52:26;;;;;;;60.83;35.50;;;;;;;;;;5152064;27;20443;-59
2021/03/25 10:58:01;;;;;;;54.70;33.30;;;;;;;;;;5136163;28;20460;-55
2021/03/25 11:00:31;;;;;;;52.10;33.43;;;;;;;;;;5137186;28;20543;-54
2021/03/25 11:02:59;;;;;;;49.07;34.07;;;;;;;;;;5137079;28;20469;-54
2021/03/25 11:05:26;;;;;;;49.97;33.00;;;;;;;;;;5137867;28;20449;-56
2021/03/25 11:07:56;;;;;;;55.47;35.63;;;;;;;;;;5132272;28;20455;-55
2021/03/25 11:10:38;;;;;;;50.50;32.17;;;;;;;;;;5131427;28;20460;-57
2021/03/25 11:13:07;;;;;;;52.43;32.10;;;;;;;;;;5123267;28;20454;-56
2021/03/25 11:15:35;;;;;;;56.57;35.37;;;;;;;;;;5136333;28;20486;-53
2021/03/25 11:18:25;;;;;;;55.80;34.70;;;;;;;;;;5140770;27;20445;-55
2021/03/25 11:20:52;;;;;;;53.03;34.37;;;;;;;;;;5139359;27;20489;-52
2021/03/25 11:23:22;;;;;;;52.47;35.30;;;;;;;;;;5137818;28;20461;-55
2021/03/25 11:28:58;;;;;;;50.90;32.53;;;;;;;;;;5134009;28;20546;-54
2021/03/25 11:31:26;;;;;;;49.90;32.90;;;;;;;;;;5136764;28;20565;-54
2021/03/25 11:34:11;;;;;;;48.30;33.20;;;;;;;;;;5129952;28;20481;-51
2021/03/25 11:36:41;;;;;;;55.73;35.80;;;;;;;;;;5129049;28;20494;-56
2021/03/25 11:39:13;;;;;;;58.43;34.93;;;;;;;;;;5136666;28;20446;-55
2021/03/25 11:41:52;;;;;;;60.90;35.30;;;;;;;;;;5136990;28;20458;-52
2021/03/25 11:44:41;;;;;;;53.90;33.13;;;;;;;;;;5136260;27;20468;-52
2021/03/25 11:47:25;;;;;;;46.60;32.80;;;;;;;;;;5135784;28;20470;-47
2021/03/25 11:49:54;;;;;;;44.17;31.47;;;;;;;;;;5132684;28;20447;-54
2021/03/25 11:52:22;;;;;;;44.33;30.00;;;;;;;;;;5136054;28;20505;-53
2021/03/25 11:54:58;;;;;;;46.87;30.40;;;;;;;;;;5137054;28;20482;-58
2021/03/25 11:57:26;;;;;;;47.60;28.97;;;;;;;;;;5136877;28;20450;-57
2021/03/25 12:00:09;;;;;;;39.33;26.03;;;;;;;;;;5137144;28;20476;-47
2021/03/25 12:02:38;;;;;;;42.13;26.87;;;;;;;;;;5136391;28;20434;-53
2021/03/25 12:05:41;;;;;;;55.17;31.63;;;;;;;;;;5136584;28;20451;-58
2021/03/25 12:11:13;;;;;;;55.23;35.80;;;;;;;;;;5135147;28;20510;-53
2021/03/25 12:13:44;;;;;;;63.30;37.93;;;;;;;;;;5136850;28;20468;-55
2021/03/25 12:16:15;;;;;;;52.67;36.07;;;;;;;;;;5135871;28;20549;-54
2021/03/25 12:18:46;;;;;;;52.33;32.93;;;;;;;;;;5135479;28;20455;-55
2021/03/25 12:21:13;;;;;;;49.57;32.80;;;;;;;;;;5135376;28;20516;-54
2021/03/25 12:24:05;;;;;;;41.13;30.23;;;;;;;;;;5134624;28;20507;-55
2021/03/25 12:32:57;;;;;;;42.90;28.10;;;;;;;;;;5135810;28;20432;-55
2021/03/25 12:35:28;;;;;;;43.70;25.43;;;;;;;;;;5135365;28;21287;-53
2021/03/25 12:40:23;;;;;;;34.83;24.03;;;;;;;;;;5134201;28;20474;-56
2021/03/25 12:43:00;;;;;;;34.23;22.73;;;;;;;;;;5135401;27;20211;-52
2021/03/25 12:45:39;;;;;;;32.57;23.93;;;;;;;;;;5135235;27;20521;-51
2021/03/25 12:48:07;;;;;;;29.60;20.63;;;;;;;;;;5135444;28;20441;-55
2021/03/25 12:50:35;;;;;;;29.57;20.80;;;;;;;;;;5134690;28;20528;-49
2021/03/25 12:53:03;;;;;;;29.77;19.83;;;;;;;;;;5135739;28;20446;-54
2021/03/25 12:55:31;;;;;;;25.83;17.43;;;;;;;;;;5135598;28;20470;-48
2021/03/25 12:57:58;;;;;;;36.07;17.40;;;;;;;;;;5135547;28;20423;-50
2021/03/25 13:00:33;;;;;;;25.30;17.13;;;;;;;;;;5135705;28;20514;-54
2021/03/25 13:03:04;;;;;;;26.10;18.30;;;;;;;;;;5134787;28;20441;-52
2021/03/25 13:05:34;;;;;;;28.80;18.00;;;;;;;;;;5135104;28;20446;-53
2021/03/25 13:08:19;;;;;;;25.17;17.33;;;;;;;;;;5135667;28;20884;-55
2021/03/25 13:10:49;;;;;;;26.60;17.90;;;;;;;;;;5149714;27;20473;-54
2021/03/25 13:13:17;;;;;;;23.10;16.37;;;;;;;;;;5127148;28;20436;-56
2021/03/25 13:15:46;;;;;;;24.77;17.77;;;;;;;;;;5126998;28;20517;-57
2021/03/25 13:18:14;;;;;;;26.33;15.47;;;;;;;;;;5132560;28;20501;-49
2021/03/25 13:21:01;;;;;;;27.03;14.83;;;;;;;;;;5135755;28;20450;-58
2021/03/25 13:23:32;;;;;;;27.30;16.43;;;;;;;;;;5135164;28;20450;-52
2021/03/25 13:26:01;;;;;;;21.90;15.50;;;;;;;;;;5134544;28;20493;-57
2021/03/25 13:28:30;;;;;;;26.10;14.03;;;;;;;;;;5114212;28;20443;-60
2021/03/25 13:31:01;;;;;;;24.17;14.17;;;;;;;;;;5120274;28;20621;-55
2021/03/25 13:33:36;;;;;;;20.20;13.80;;;;;;;;;;5136830;28;20438;-51
2021/03/25 13:36:06;;;;;;;28.37;13.80;;;;;;;;;;5135862;28;20466;-54
2021/03/25 13:38:34;;;;;;;22.50;13.10;;;;;;;;;;5139078;28;20438;-52
2021/03/25 13:41:04;;;;;;;20.87;15.00;;;;;;;;;;5139041;28;20482;-53
2021/03/25 13:43:46;;;;;;;25.63;13.50;;;;;;;;;;5138893;28;20458;-52
2021/03/25 13:46:13;;;;;;;18.43;13.40;;;;;;;;;;5138842;28;20430;-49
2021/03/25 13:48:41;;;;;;;19.93;12.00;;;;;;;;;;5139863;28;20462;-55
2021/03/25 13:51:08;;;;;;;20.57;12.07;;;;;;;;;;5135543;28;20481;-59
2021/03/25 13:53:36;;;;;;;19.40;11.50;;;;;;;;;;5138638;27;20513;-50
2021/03/25 13:56:24;;;;;;;21.97;12.33;;;;;;;;;;5130965;28;20510;-55
2021/03/25 13:58:59;;;;;;;20.57;12.00;;;;;;;;;;5118522;28;20510;-50
2021/03/25 14:01:28;;;;;;;19.47;12.30;;;;;;;;;;5125523;27;20507;-49
2021/03/25 14:03:57;;;;;;;14.60;11.40;;;;;;;;;;5138505;28;20488;-56
2021/03/25 14:06:29;;;;;;;21.63;14.60;;;;;;;;;;5130342;28;20494;-54
2021/03/25 14:09:01;;;;;;;23.40;12.97;;;;;;;;;;5138969;28;20458;-56
2021/03/25 14:11:47;;;;;;;19.17;12.30;;;;;;;;;;5139883;28;20450;-53
2021/03/25 14:14:15;;;;;;;21.87;12.77;;;;;;;;;;5136526;28;20472;-56
2021/03/25 14:17:01;;;;;;;23.13;13.50;;;;;;;;;;5130339;28;20493;-58
2021/03/25 14:19:34;;;;;;;19.97;13.23;;;;;;;;;;5134513;28;20462;-59
2021/03/25 14:22:18;;;;;;;24.20;12.30;;;;;;;;;;5135891;28;20438;-52
2021/03/25 14:25:42;;;;;;;19.37;13.00;;;;;;;;;;5139287;28;20470;-52
2021/03/25 14:28:36;;;;;;;16.17;12.20;;;;;;;;;;5137280;28;20438;-54
2021/03/25 14:31:06;;;;;;;19.20;12.93;;;;;;;;;;5136053;28;20462;-53
2021/03/25 14:33:33;;;;;;;26.60;13.03;;;;;;;;;;5129778;28;20552;-48
2021/03/25 14:36:20;;;;;;;20.20;12.87;;;;;;;;;;5137789;27;20549;-56
2021/03/25 14:38:56;;;;;;;15.43;11.30;;;;;;;;;;5154591;27;20449;-49
2021/03/25 14:41:26;;;;;;;21.50;12.43;;;;;;;;;;5136677;28;20446;-47
2021/03/25 14:43:54;;;;;;;19.67;13.40;;;;;;;;;;5138162;28;20454;-53
2021/03/25 14:46:21;;;;;;;17.90;13.77;;;;;;;;;;5137998;28;20462;-54
2021/03/25 14:49:06;;;;;;;22.07;12.73;;;;;;;;;;5137866;28;20592;-55
2021/03/25 14:51:40;;;;;;;19.37;13.53;;;;;;;;;;5138033;28;20458;-53
2021/03/25 14:54:07;;;;;;;21.80;13.30;;;;;;;;;;5131556;28;20474;-52
2021/03/25 14:56:35;;;;;;;23.93;13.37;;;;;;;;;;5128710;28;20510;-56
2021/03/25 14:59:02;;;;;;;22.70;12.00;;;;;;;;;;5138105;27;20523;-52
2021/03/25 15:01:44;;;;;;;21.20;12.53;;;;;;;;;;5137943;27;20460;-50
2021/03/25 15:04:12;;;;;;;20.00;12.80;;;;;;;;;;5137648;28;20450;-52
2021/03/25 15:07:04;;;;;;;21.87;14.03;;;;;;;;;;5135825;27;20487;-53
2021/03/25 15:09:34;;;;;;;18.87;11.80;;;;;;;;;;5137593;28;20442;-55
2021/03/25 15:12:02;;;;;;;17.50;12.77;;;;;;;;;;5137424;28;20497;-55
2021/03/25 15:14:29;;;;;;;19.77;12.70;;;;;;;;;;5137343;28;20476;-50
2021/03/25 15:16:58;;;;;;;20.63;11.97;;;;;;;;;;5133283;28;20471;-59
2021/03/25 15:19:28;;;;;;;15.90;11.10;;;;;;;;;;5134352;28;20454;-54
2021/03/25 15:21:56;;;;;;;27.03;13.77;;;;;;;;;;5136621;28;20511;-54
2021/03/25 15:24:32;;;;;;;14.97;12.27;;;;;;;;;;5136619;27;20451;-53
2021/03/25 15:27:02;;;;;;;16.03;11.77;;;;;;;;;;5133236;28;20435;-54
2021/03/25 15:29:30;;;;;;;17.00;13.20;;;;;;;;;;5134372;28;20454;-47
2021/03/25 15:31:59;;;;;;;14.83;10.47;;;;;;;;;;5136936;28;20415;-58
2021/03/25 15:34:30;;;;;;;18.47;11.90;;;;;;;;;;5130997;28;20474;-58
2021/03/25 15:36:59;;;;;;;14.07;11.73;;;;;;;;;;5130799;28;20538;-56
2021/03/25 15:42:30;;;;;;;23.13;10.87;;;;;;;;;;5130227;28;20481;-49
2021/03/25 15:44:58;;;;;;;15.93;9.47;;;;;;;;;;5127698;28;20443;-55
2021/03/25 15:47:33;;;;;;;11.80;7.50;;;;;;;;;;5115942;28;20485;-51
2021/03/25 15:49:59;;;;;;;12.40;9.30;;;;;;;;;;5115210;28;20455;-54
2021/03/25 15:52:26;;;;;;;21.23;11.30;;;;;;;;;;5115935;28;20426;-53
2021/03/25 15:54:56;;;;;;;9.30;7.47;;;;;;;;;;5115941;28;20462;-53
2021/03/25 15:57:24;;;;;;;13.07;7.57;;;;;;;;;;5136034;28;20520;-56
2021/03/25 16:00:12;;;;;;;11.90;7.93;;;;;;;;;;5136299;28;20459;-50
2021/03/25 16:05:53;;;;;;;10.23;7.30;;;;;;;;;;5130412;28;20488;-48